createdAt,value
2019-04-21T00:03:40.778Z,102655.33
2019-04-21T00:06:29.928Z,102653.52
2019-04-21T00:22:54.668Z,102642.88
2019-04-21T00:29:48.162Z,102524.34
2019-04-21T00:41:53.693Z,102633.34
2019-04-21T00:51:31.495Z,102631.58
2019-04-21T01:27:56.408Z,102617.66
2019-04-21T03:32:14.413Z,102505.57
2019-04-21T04:38:46.765Z,102484.80
2019-04-21T05:01:43.754Z,102473.75
2019-04-21T06:01:18.300Z,102452.06
2019-04-21T06:03:57.122Z,102438.23
2019-04-21T06:16:48.016Z,102434.16
2019-04-21T06:23:42.436Z,102436.11
2019-04-21T06:30:05.235Z,102435.80
2019-04-21T06:42:54.071Z,102425.86
2019-04-21T06:49:08.616Z,102418.77
2019-04-21T06:51:43.647Z,102417.14
2019-04-21T06:54:23.895Z,102422.45
2019-04-21T06:57:00.916Z,102419.67
2019-04-21T07:07:19.004Z,102409.33
2019-04-21T07:13:03.671Z,102403.34
2019-04-21T07:19:13.181Z,102405.64
2019-04-21T07:21:33.872Z,102396.66
2019-04-21T07:24:10.689Z,102400.04
2019-04-21T07:26:36.890Z,102391.52
2019-04-21T07:30:12.942Z,102389.53
2019-04-21T07:36:26.297Z,102387.81
2019-04-21T07:42:22.357Z,102384.96
2019-04-21T07:48:16.030Z,102373.91
2019-04-21T07:54:10.349Z,102375.85
2019-04-21T07:56:19.928Z,102367.88
2019-04-21T07:59:03.836Z,102362.20
2019-04-21T08:01:48.376Z,102366.99
2019-04-21T08:11:25.355Z,102360.40
2019-04-21T08:13:56.152Z,102356.91
2019-04-21T08:16:45.712Z,102355.89
2019-04-21T08:19:31.005Z,102362.23
2019-04-21T08:22:12.495Z,102358.59
2019-04-21T08:24:50.129Z,102361.40
2019-04-21T08:27:25.833Z,102357.39
2019-04-21T08:29:58.310Z,102352.44
2019-04-21T08:37:55.421Z,102347.53
2019-04-21T08:40:39.306Z,102343.00
2019-04-21T08:43:09.341Z,102344.72
2019-04-21T08:45:46.939Z,102337.30
2019-04-21T08:48:26.837Z,102331.09
2019-04-21T08:51:14.158Z,102330.52
2019-04-21T08:56:21.357Z,102328.27
2019-04-21T08:59:24.338Z,102322.19
2019-04-21T09:02:08.938Z,102324.10
2019-04-21T09:04:52.479Z,102320.09
2019-04-21T09:23:45.181Z,102311.44
2019-04-21T09:26:25.238Z,102311.44
2019-04-21T09:28:51.928Z,102305.71
2019-04-21T09:31:29.305Z,102296.36
2019-04-21T09:33:57.768Z,102300.02
2019-04-21T09:36:35.243Z,102297.36
2019-04-21T09:39:48.437Z,102288.66
2019-04-21T09:45:21.166Z,102288.66
2019-04-21T09:47:57.204Z,102288.66
2019-04-21T09:50:34.978Z,102281.11
2019-04-21T09:53:17.913Z,102273.64
2019-04-21T16:29:59.543Z,102272.62
2019-04-21T16:32:32.228Z,102272.62
2019-04-21T16:35:08.640Z,101801.61
2019-04-21T17:05:09.960Z,101788.60
2019-04-21T17:07:40.832Z,101788.60
2019-04-21T17:10:12.706Z,101786.16
2019-04-21T17:12:43.241Z,101789.17
2019-04-21T17:15:29.365Z,101789.47
2019-04-21T17:18:03.909Z,101783.17
2019-04-21T17:20:33.290Z,101783.17
2019-04-21T17:22:49.471Z,101786.23
2019-04-21T17:25:24.098Z,101788.76
2019-04-21T17:27:53.238Z,101780.23
2019-04-21T17:30:26.437Z,101779.59
2019-04-21T17:33:01.363Z,101780.91
2019-04-21T17:35:31.310Z,101674.66
2019-04-21T17:38:03.969Z,101782.26
2019-04-21T17:40:35.932Z,101776.43
2019-04-21T17:43:10.777Z,101785.39
2019-04-21T17:45:39.348Z,101775.14
2019-04-21T17:48:18.432Z,101784.42
2019-04-21T17:51:03.401Z,101775.78
2019-04-21T17:53:45.815Z,101785.20
2019-04-21T17:56:55.157Z,101784.08
2019-04-21T17:59:36.293Z,101788.41
2019-04-21T18:01:54.628Z,101786.97
2019-04-21T18:04:28.486Z,101797.94
2019-04-21T18:07:17.330Z,101785.55
2019-04-21T18:10:07.688Z,101788.26
2019-04-21T18:12:33.852Z,101793.20
2019-04-21T18:14:59.850Z,101793.65
2019-04-21T18:17:22.770Z,101793.81
2019-04-21T18:19:54.871Z,101793.03
2019-04-21T18:22:58.604Z,101798.56
2019-04-21T18:25:44.164Z,101796.42
2019-04-21T18:28:04.841Z,101807.57
2019-04-21T18:30:49.707Z,101804.54
2019-04-21T18:33:27.231Z,101806.70
2019-04-21T18:36:23.847Z,101806.39
2019-04-21T18:39:21.889Z,101799.27
2019-04-21T18:42:04.859Z,101805.66
2019-04-21T18:47:58.515Z,101809.50
2019-04-21T18:50:42.068Z,101815.93
2019-04-21T18:53:19.474Z,101818.39
2019-04-21T18:55:46.684Z,101820.67
2019-04-21T18:58:15.848Z,101811.30
2019-04-21T19:00:48.746Z,101817.77
2019-04-21T19:03:31.913Z,101814.05
2019-04-21T19:06:04.524Z,101820.52
2019-04-21T19:08:46.958Z,101818.57
2019-04-21T19:11:22.280Z,101816.11
2019-04-21T19:14:20.766Z,101817.22
2019-04-21T19:16:47.766Z,101812.96
2019-04-21T19:21:55.860Z,101815.20
2019-04-21T19:27:04.949Z,101807.39
2019-04-21T19:29:29.157Z,101805.98
2019-04-21T19:32:04.454Z,101817.36
2019-04-21T19:34:23.731Z,101815.83
2019-04-21T19:36:53.245Z,101814.16
2019-04-21T19:39:39.078Z,101810.27
2019-04-21T19:42:07.186Z,101806.55
2019-04-21T19:44:48.256Z,101809.34
2019-04-21T19:47:25.899Z,101805.88
2019-04-21T19:50:19.431Z,101801.61
2019-04-21T19:52:48.722Z,101807.16
2019-04-21T19:55:12.022Z,101798.46
2019-04-21T19:57:43.225Z,101807.07
2019-04-21T20:00:15.908Z,101804.10
2019-04-21T20:02:44.798Z,101807.23
2019-04-21T20:05:24.236Z,101799.80
2019-04-21T20:08:05.409Z,101800.33
2019-04-21T20:10:42.338Z,101801.45
2019-04-21T20:13:29.754Z,101797.52
2019-04-21T20:15:52.309Z,101797.21
2019-04-21T20:18:16.514Z,101795.65
2019-04-21T20:20:35.214Z,101791.79
2019-04-21T20:23:13.202Z,101788.73
2019-04-21T20:25:43.747Z,101790.61
2019-04-21T20:28:29.476Z,101784.46
2019-04-21T20:31:03.839Z,101779.69
2019-04-21T20:33:48.476Z,101785.57
2019-04-21T20:36:09.268Z,101776.36
2019-04-21T20:38:31.189Z,101780.87
2019-04-21T20:41:01.911Z,101779.98
2019-04-21T20:43:45.655Z,101782.81
2019-04-21T20:46:12.536Z,101782.78
2019-04-21T20:48:50.948Z,101776.63
2019-04-21T20:51:29.963Z,101775.90
2019-04-21T20:53:53.671Z,101770.66
2019-04-21T20:56:20.607Z,101769.90
2019-04-21T20:59:00.010Z,101769.13
2019-04-21T21:04:06.146Z,101766.60
2019-04-21T21:06:54.367Z,101764.84
2019-04-21T21:09:25.331Z,101759.54
2019-04-21T21:12:20.368Z,101759.27
2019-04-21T21:14:34.851Z,101759.86
2019-04-21T21:17:26.669Z,101751.01
2019-04-21T21:19:55.771Z,101756.39
2019-04-21T21:22:14.870Z,101759.59
2019-04-21T21:24:53.317Z,101755.66
2019-04-21T21:27:24.818Z,101757.02
2019-04-21T21:30:04.832Z,101755.34
2019-04-21T21:32:33.799Z,101757.16
2019-04-21T21:35:13.146Z,101756.32
2019-04-21T21:37:50.629Z,101753.80
2019-04-21T21:40:21.858Z,101757.48
2019-04-21T21:42:43.676Z,101760.26
2019-04-21T21:45:17.741Z,101758.99
2019-04-21T21:48:04.515Z,101751.05
2019-04-21T21:50:23.956Z,101745.39
2019-04-21T21:52:58.792Z,101743.67
2019-04-21T21:55:25.708Z,101743.21
2019-04-21T21:58:03.984Z,101748.66
2019-04-21T22:00:36.985Z,101746.44
2019-04-21T22:03:14.725Z,101741.59
2019-04-21T22:05:46.537Z,101747.84
2019-04-21T22:08:10.155Z,101742.60
2019-04-21T22:10:41.079Z,101750.61
2019-04-21T22:13:14.766Z,101742.73
2019-04-21T22:15:48.280Z,101749.87
2019-04-21T22:18:36.179Z,101749.09
2019-04-21T22:21:02.258Z,101748.37
2019-04-21T22:23:29.501Z,101752.90
2019-04-21T22:25:53.505Z,101748.47
2019-04-21T22:28:23.145Z,101753.36
2019-04-21T22:30:55.153Z,101748.53
2019-04-21T22:33:25.955Z,101748.24
2019-04-21T22:36:02.696Z,101740.66
2019-04-21T22:38:41.259Z,101741.70
2019-04-21T22:41:10.017Z,101739.97
2019-04-21T22:43:37.623Z,101732.10
2019-04-21T22:46:01.101Z,101736.66
2019-04-21T22:48:30.878Z,101733.56
2019-04-21T22:51:06.965Z,101733.20
2019-04-21T22:53:42.831Z,101726.69
2019-04-21T22:56:24.229Z,101730.78
2019-04-21T22:58:51.358Z,101725.48
2019-04-21T23:01:30.199Z,101727.42
2019-04-21T23:03:56.915Z,101731.45
2019-04-21T23:06:27.585Z,101724.87
2019-04-21T23:08:55.087Z,101724.00
2019-04-21T23:11:28.018Z,101718.37
2019-04-21T23:14:02.488Z,101726.42
2019-04-21T23:20:05.712Z,101730.60
2019-04-21T23:26:18.200Z,101736.50
2019-04-21T23:28:52.710Z,101737.92
2019-04-21T23:31:24.442Z,101741.09
2019-04-21T23:33:32.876Z,101745.21
2019-04-21T23:36:25.874Z,101745.27
2019-04-21T23:39:06.986Z,101740.88
2019-04-21T23:45:12.194Z,101739.40
2019-04-21T23:51:31.400Z,101740.44
2019-04-21T23:57:03.812Z,101728.34
